Time;durP1;ratioP1;P1;durP2;ratioP2;P2;SDS_P1;SDS_P2;PMS_P1;PMS_P2;Temp;Humidity;BMP_temperature;BMP_pressure;BME280_temperature;BME280_humidity;BME280_pressure;Samples;Min_cycle;Max_cycle;Signal;HPM_P1;HPM_P2
2021/06/23 05:32:38;;;;;;;1.60;1.50;;;;;;;23.15;67.92;96848.28;5068055;28;21099;-61
2021/06/23 05:35:52;;;;;;;1.60;1.40;;;;;;;23.63;66.38;96855.66;5089011;28;20545;-61
2021/06/23 05:38:18;;;;;;;1.75;1.65;;;;;;;23.67;65.86;96859.28;5087651;28;20191;-61
2021/06/23 05:40:43;;;;;;;1.38;1.30;;;;;;;23.69;66.28;96865.09;5087957;28;20275;-61
2021/06/23 05:43:09;;;;;;;1.50;1.40;;;;;;;24.00;64.83;96868.53;5087514;28;20173;-61
2021/06/23 05:45:34;;;;;;;1.50;1.40;;;;;;;24.02;63.31;96874.38;5087929;28;20841;-61
2021/06/23 05:48:00;;;;;;;2.28;2.08;;;;;;;24.26;62.93;96869.44;5088370;28;20195;-61
2021/06/23 05:50:25;;;;;;;1.65;1.50;;;;;;;22.88;66.59;96875.94;5086495;28;20276;-60
2021/06/23 05:52:51;;;;;;;1.70;1.60;;;;;;;23.58;64.99;96878.75;5088458;28;20687;-60
2021/06/23 05:55:21;;;;;;;1.20;1.20;;;;;;;23.88;62.50;96879.84;5087325;28;20208;-64
2021/06/23 05:57:52;;;;;;;1.50;1.50;;;;;;;23.65;63.95;96886.34;5087441;28;20192;-61
2021/06/23 06:00:19;;;;;;;1.90;1.80;;;;;;;23.69;62.82;96887.31;5088428;28;20173;-61
2021/06/23 06:59:10;;;;;;;1.80;1.70;;;;;;;24.25;60.08;96901.88;5082906;28;20971;-65
2021/06/23 07:01:55;;;;;;;1.55;1.42;;;;;;;24.31;60.41;96903.31;5102378;27;1287268;-65
2021/06/23 07:04:20;;;;;;;1.45;1.45;;;;;;;24.59;59.50;96901.16;5128365;27;20195;-64
2021/06/23 07:06:46;;;;;;;2.55;1.52;;;;;;;24.66;58.60;96906.88;5128754;27;20179;-65
2021/06/23 07:09:13;;;;;;;1.90;1.70;;;;;;;24.71;59.41;96912.84;5126745;28;20277;-65
2021/06/23 07:11:39;;;;;;;2.38;1.55;;;;;;;24.96;57.88;96902.50;5128359;27;20288;-65
2021/06/23 07:15:36;;;;;;;1.60;1.60;;;;;;;24.68;59.08;96910.81;5123223;27;20565;-65
2021/06/23 07:18:02;;;;;;;1.40;1.40;;;;;;;24.75;59.35;96913.00;5108650;28;20261;-65
2021/06/23 07:22:08;;;;;;;1.52;1.52;;;;;;;24.62;60.43;96920.13;5087923;27;20557;-65
2021/06/23 07:24:34;;;;;;;1.90;1.83;;;;;;;24.76;59.71;96922.63;5085785;28;20196;-63
2021/06/23 07:26:59;;;;;;;2.17;1.60;;;;;;;25.00;58.76;96916.84;5087927;28;20277;-64
2021/06/23 07:29:28;;;;;;;1.70;1.70;;;;;;;25.03;58.26;96916.19;5087134;28;20180;-65
2021/06/23 07:37:02;;;;;;;2.30;2.20;;;;;;;25.26;58.29;96926.47;5088220;28;20210;-65
2021/06/23 07:39:28;;;;;;;2.20;2.10;;;;;;;25.47;57.30;96920.41;5087353;28;20177;-65
2021/06/23 07:41:54;;;;;;;2.58;2.47;;;;;;;25.38;57.03;96919.66;5086609;28;20687;-65
2021/06/23 07:44:28;;;;;;;2.60;2.42;;;;;;;25.20;58.27;96919.69;5086928;28;20193;-65
2021/06/23 07:46:58;;;;;;;2.28;2.17;;;;;;;25.37;57.30;96921.53;5086296;28;20184;-65
2021/06/23 07:49:26;;;;;;;2.28;2.20;;;;;;;25.57;56.70;96920.94;5086312;28;20172;-66
2021/06/23 08:10:38;;;;;;;2.80;2.70;;;;;;;26.70;53.38;96921.22;5086057;28;20207;-66
2021/06/23 08:13:04;;;;;;;2.92;2.83;;;;;;;26.72;52.15;96913.63;5087607;28;20460;-66
2021/06/23 08:15:32;;;;;;;3.05;2.85;;;;;;;26.70;52.31;96915.84;5085881;28;20677;-66
2021/06/23 08:17:57;;;;;;;3.00;2.80;;;;;;;26.77;53.64;96910.72;5085896;28;20287;-66
2021/06/23 08:20:23;;;;;;;2.38;2.28;;;;;;;26.63;53.42;96902.94;5085067;28;20315;-66
2021/06/23 08:22:49;;;;;;;3.13;2.78;;;;;;;26.44;55.14;96905.25;5085928;28;20578;-66
2021/06/23 08:25:15;;;;;;;3.20;3.00;;;;;;;26.63;53.87;96900.25;5086769;28;20193;-66
2021/06/23 08:27:41;;;;;;;2.75;2.65;;;;;;;26.52;53.24;96898.25;5085990;28;20233;-66
2021/06/23 08:30:08;;;;;;;3.00;2.80;;;;;;;26.51;52.72;96910.13;5086625;28;20271;-66
2021/06/23 08:32:33;;;;;;;2.60;2.50;;;;;;;26.22;52.32;96903.63;5075934;28;20189;-66
2021/06/23 08:34:59;;;;;;;2.53;2.42;;;;;;;25.97;53.57;96904.53;5072905;28;20182;-66
2021/06/23 08:37:25;;;;;;;2.63;2.53;;;;;;;25.86;54.04;96898.69;5071413;28;20185;-66
2021/06/23 08:39:51;;;;;;;3.15;2.97;;;;;;;26.11;53.54;96897.03;5073247;28;20197;-66
2021/06/23 08:42:20;;;;;;;2.30;2.20;;;;;;;26.29;53.28;96898.56;5070346;28;20201;-66
2021/06/23 08:44:46;;;;;;;2.22;2.13;;;;;;;26.25;52.62;96896.84;5073259;28;20607;-66
2021/06/23 08:47:12;;;;;;;2.50;2.08;;;;;;;26.27;53.00;96900.75;5072511;28;20191;-66
2021/06/23 08:49:38;;;;;;;2.40;2.30;;;;;;;24.91;56.73;96900.75;5070749;28;20312;-66
2021/06/23 08:52:04;;;;;;;2.30;2.20;;;;;;;24.86;55.31;96896.28;5073069;28;20537;-66
2021/06/23 08:57:38;;;;;;;1.83;1.83;;;;;;;24.15;57.00;96894.91;5121259;27;20583;-65
2021/06/23 09:00:08;;;;;;;3.15;2.15;;;;;;;24.31;56.73;96889.91;5089830;28;20284;-65
2021/06/23 09:02:34;;;;;;;1.98;1.88;;;;;;;24.08;56.33;96889.19;5107064;28;20736;-65
2021/06/23 09:05:11;;;;;;;1.67;1.67;;;;;;;24.76;54.89;96893.13;5107945;28;20225;-65
2021/06/23 09:07:53;;;;;;;1.88;1.77;;;;;;;25.16;54.50;96891.91;5073409;28;20600;-65
2021/06/23 09:10:18;;;;;;;1.65;1.63;;;;;;;25.42;54.45;96896.44;5105910;28;20175;-65
2021/06/23 09:13:04;;;;;;;1.60;1.58;;;;;;;24.28;55.72;96886.00;5106780;28;20188;-65
2021/06/23 09:15:53;;;;;;;1.83;1.83;;;;;;;24.20;56.26;96881.38;5106427;28;20206;-65
2021/06/23 09:18:25;;;;;;;1.60;1.60;;;;;;;25.08;54.52;96878.50;5104454;28;20302;-66
2021/06/23 09:21:00;;;;;;;1.92;1.80;;;;;;;25.03;54.56;96878.66;5107688;28;20269;-65
2021/06/23 09:23:38;;;;;;;2.13;2.00;;;;;;;25.20;54.09;96875.94;5107222;28;20201;-65
2021/06/23 09:26:26;;;;;;;2.30;2.15;;;;;;;24.93;54.99;96884.34;5089685;28;20194;-65
2021/06/23 10:17:45;;;;;;;1.30;1.30;;;;;;;24.89;49.37;96873.47;5108689;27;20613;-65
2021/06/23 10:20:12;;;;;;;1.73;1.73;;;;;;;24.75;49.81;96878.94;5108146;28;20219;-65
2021/06/23 10:26:52;;;;;;;1.48;1.48;;;;;;;24.33;48.32;96860.94;5067532;28;20563;-65
2021/06/23 10:29:25;;;;;;;1.88;1.88;;;;;;;24.22;46.68;96857.78;5065677;28;20227;-66
2021/06/23 10:51:23;;;;;;;1.60;1.60;;;;;;;24.84;47.15;96844.88;5067927;28;20670;-65
2021/06/23 10:53:48;;;;;;;1.95;1.88;;;;;;;24.76;48.30;96850.25;5057315;28;20666;-65
2021/06/23 10:56:44;;;;;;;2.08;1.80;;;;;;;24.90;48.13;96858.16;5055916;28;20189;-65
2021/06/23 10:59:32;;;;;;;1.88;1.77;;;;;;;25.41;46.33;96847.31;5046994;28;20186;-65
2021/06/23 11:02:08;;;;;;;2.38;2.08;;;;;;;25.44;46.49;96849.38;5059018;28;20197;-65
2021/06/23 11:05:03;;;;;;;2.30;2.20;;;;;;;25.21;45.74;96845.34;5055650;28;20178;-65
2021/06/23 11:07:38;;;;;;;2.67;2.58;;;;;;;25.93;45.86;96852.53;5054189;28;20200;-65
2021/06/23 11:10:12;;;;;;;2.83;2.72;;;;;;;26.20;44.91;96860.13;5062806;28;20689;-65
2021/06/23 11:12:47;;;;;;;2.70;2.60;;;;;;;26.57;44.06;96853.16;5065613;28;21838;-65
2021/06/23 11:15:14;;;;;;;2.85;2.75;;;;;;;26.46;43.50;96852.75;5057598;28;20189;-65
2021/06/23 11:17:40;;;;;;;2.30;2.30;;;;;;;26.24;43.41;96850.38;5055254;28;20190;-65
2021/06/23 11:20:25;;;;;;;3.17;2.97;;;;;;;26.58;43.97;96849.34;5065489;28;20194;-65
2021/06/23 11:22:52;;;;;;;2.53;2.42;;;;;;;26.59;43.55;96844.72;5051107;28;20193;-65
2021/06/23 11:25:25;;;;;;;2.72;2.63;;;;;;;25.91;45.38;96849.41;5058638;28;20216;-65
2021/06/23 11:28:10;;;;;;;3.08;2.97;;;;;;;25.61;45.87;96853.94;5060811;28;20246;-65
2021/06/23 11:30:50;;;;;;;3.00;2.90;;;;;;;25.91;46.07;96847.50;5051049;28;20229;-65
2021/06/23 11:33:28;;;;;;;2.72;2.63;;;;;;;26.14;45.74;96847.25;5051059;28;20659;-65
2021/06/23 11:35:58;;;;;;;2.80;2.60;;;;;;;25.69;46.45;96839.69;5056325;28;20278;-65
2021/06/23 11:38:24;;;;;;;2.75;2.65;;;;;;;25.91;46.59;96834.09;5049660;28;20185;-65
2021/06/23 11:40:51;;;;;;;2.83;2.72;;;;;;;25.53;48.50;96836.72;5049553;28;20529;-65
2021/06/23 11:43:17;;;;;;;2.67;2.58;;;;;;;24.80;49.67;96837.78;5051640;28;20658;-65
2021/06/23 11:45:42;;;;;;;2.53;2.42;;;;;;;24.78;49.15;96840.00;5048696;28;20178;-65
2021/06/23 11:48:08;;;;;;;2.50;2.40;;;;;;;24.80;49.54;96835.88;5058032;28;20193;-65
2021/06/23 11:50:34;;;;;;;2.08;2.08;;;;;;;24.89;48.91;96827.09;5053317;28;20324;-65
2021/06/23 11:53:00;;;;;;;2.20;2.10;;;;;;;24.57;49.39;96834.50;5049614;28;20204;-65
2021/06/23 11:55:25;;;;;;;2.13;2.13;;;;;;;24.19;49.77;96838.84;5060179;28;20174;-65
2021/06/23 11:57:56;;;;;;;2.05;2.05;;;;;;;24.43;50.37;96834.63;5047353;28;20244;-65
2021/06/23 12:00:23;;;;;;;2.28;2.17;;;;;;;24.42;49.82;96838.41;5058322;28;20173;-65
2021/06/23 12:05:20;;;;;;;1.92;1.92;;;;;;;24.21;49.96;96826.72;5127999;27;21086;-65
2021/06/23 12:07:45;;;;;;;1.80;1.80;;;;;;;24.44;49.31;96838.88;5108870;28;20262;-65
2021/06/23 12:10:11;;;;;;;1.88;1.77;;;;;;;24.18;48.29;96830.03;5108684;28;20237;-65
2021/06/23 12:12:37;;;;;;;1.80;1.80;;;;;;;24.41;48.56;96820.75;5107611;28;20616;-65
2021/06/23 12:15:07;;;;;;;2.03;1.92;;;;;;;24.19;48.44;96826.22;5107789;28;20199;-65
2021/06/23 12:17:32;;;;;;;2.17;2.17;;;;;;;24.50;48.74;96818.09;5107754;28;20196;-65
2021/06/23 12:19:58;;;;;;;1.75;1.75;;;;;;;24.70;49.35;96819.34;5109043;28;20186;-66
2021/06/23 12:22:24;;;;;;;1.80;1.80;;;;;;;25.12;48.81;96813.16;5107671;28;20637;-67
2021/06/23 12:24:51;;;;;;;2.05;2.05;;;;;;;25.44;47.47;96814.50;5107622;28;20239;-67
2021/06/23 12:27:16;;;;;;;1.92;1.92;;;;;;;25.44;47.20;96819.88;5107866;28;20601;-67
2021/06/23 12:29:41;;;;;;;2.08;2.08;;;;;;;25.71;45.17;96815.19;5107668;28;20219;-66
2021/06/23 12:32:07;;;;;;;2.30;2.20;;;;;;;25.99;44.18;96814.44;5089889;28;20181;-67
2021/06/23 12:34:33;;;;;;;2.13;2.13;;;;;;;26.04;43.77;96816.13;5107307;28;20199;-66
2021/06/23 12:36:58;;;;;;;2.83;2.72;;;;;;;25.81;44.66;96810.25;5108024;28;20176;-66
2021/06/23 12:39:24;;;;;;;2.25;2.25;;;;;;;26.11;44.33;96813.72;5106993;28;20187;-66
2021/06/23 12:41:51;;;;;;;2.47;2.47;;;;;;;26.08;44.71;96814.41;5107282;28;20203;-66
2021/06/23 12:44:17;;;;;;;2.63;2.53;;;;;;;26.46;44.30;96814.31;5107215;28;20223;-66
2021/06/23 12:46:43;;;;;;;3.15;3.05;;;;;;;26.47;43.79;96813.97;5089776;28;20184;-66
2021/06/23 12:49:08;;;;;;;2.88;2.78;;;;;;;26.59;43.44;96807.09;5108169;28;20213;-66
2021/06/23 12:51:34;;;;;;;3.75;3.55;;;;;;;26.56;43.79;96816.59;5088951;28;20187;-66
2021/06/23 12:53:59;;;;;;;3.00;2.90;;;;;;;26.38;43.89;96807.09;5104039;28;20180;-66
2021/06/23 12:56:25;;;;;;;2.67;2.58;;;;;;;26.04;44.46;96808.88;5106928;28;20641;-66
2021/06/23 12:58:50;;;;;;;2.97;2.88;;;;;;;25.50;45.61;96799.78;5107947;28;20226;-66
2021/06/23 13:01:16;;;;;;;2.78;2.67;;;;;;;25.90;44.52;96802.94;5107244;28;20522;-66
2021/06/23 13:03:43;;;;;;;2.65;2.55;;;;;;;26.12;44.23;96807.25;5099849;28;20241;-65
2021/06/23 13:06:08;;;;;;;2.80;2.70;;;;;;;25.55;45.99;96807.66;5068456;28;20645;-66
2021/06/23 13:08:34;;;;;;;2.80;2.70;;;;;;;25.28;46.88;96813.44;5086464;28;20250;-66
2021/06/23 13:11:00;;;;;;;2.17;2.17;;;;;;;24.75;46.21;96822.63;5086920;28;21756;-66
2021/06/23 13:13:27;;;;;;;2.45;2.35;;;;;;;25.24;45.50;96813.28;5086184;28;20199;-66
2021/06/23 13:15:54;;;;;;;2.10;2.10;;;;;;;25.57;45.18;96804.69;5077201;28;20182;-66
2021/06/23 13:18:20;;;;;;;2.60;2.50;;;;;;;25.84;44.07;96796.19;5072450;28;20189;-66
2021/06/23 13:20:45;;;;;;;2.10;2.10;;;;;;;25.70;44.00;96794.81;5073621;28;20193;-66
2021/06/23 13:23:10;;;;;;;2.92;2.83;;;;;;;26.14;42.16;96804.25;5073131;28;20296;-66
2021/06/23 13:25:36;;;;;;;2.33;2.22;;;;;;;26.36;41.96;96796.66;5072704;28;20177;-68
2021/06/23 13:28:01;;;;;;;2.50;2.40;;;;;;;25.78;43.99;96799.38;5055163;28;20592;-66
2021/06/23 13:30:28;;;;;;;2.63;2.53;;;;;;;25.57;44.45;96799.31;5072525;28;20174;-66
2021/06/23 13:32:53;;;;;;;2.30;2.30;;;;;;;25.92;46.53;96806.09;5055179;28;20252;-66
2021/06/23 13:35:19;;;;;;;2.80;2.70;;;;;;;25.07;51.44;96807.97;5072412;28;20277;-66
2021/06/23 13:37:49;;;;;;;2.97;2.80;;;;;;;24.78;53.56;96807.81;5072859;28;20178;-66
2021/06/23 13:40:16;;;;;;;2.15;2.13;;;;;;;24.98;52.38;96803.72;5072693;28;20189;-66
2021/06/23 13:42:42;;;;;;;2.33;2.22;;;;;;;25.62;50.45;96797.25;5072083;28;20220;-66
2021/06/23 13:45:08;;;;;;;2.42;2.33;;;;;;;25.62;51.00;96810.66;5072643;28;20228;-66
2021/06/23 13:47:34;;;;;;;2.38;2.28;;;;;;;25.38;50.43;96804.25;5072529;28;20326;-66
2021/06/23 13:50:00;;;;;;;2.30;2.20;;;;;;;25.80;49.61;96800.63;5073220;28;20685;-66
2021/06/23 13:52:26;;;;;;;2.95;2.38;;;;;;;25.72;49.53;96796.09;5071998;28;20580;-66
2021/06/23 13:54:51;;;;;;;2.50;2.40;;;;;;;25.93;49.59;96794.22;5054960;28;20189;-66
2021/06/23 13:57:17;;;;;;;2.63;2.53;;;;;;;25.83;50.10;96794.63;5054302;28;20204;-66
2021/06/23 13:59:42;;;;;;;2.40;2.30;;;;;;;24.47;54.13;96791.09;5072782;28;20194;-65
2021/06/23 14:04:44;;;;;;;3.17;1.80;;;;;;;23.75;57.57;96770.19;5123416;27;21039;-65
